sensor_id;sensor_type;location;lat;lon;timestamp;temperature;humidity
70154;DHT22;57519;51.494;-2.626;2023-06-14T00:01:41;18.51;59.63
70154;DHT22;57519;51.494;-2.626;2023-06-14T00:04:06;18.52;59.25
70154;DHT22;57519;51.494;-2.626;2023-06-14T00:06:34;18.51;59.21
70154;DHT22;57519;51.494;-2.626;2023-06-14T00:08:59;18.52;58.84
70154;DHT22;57519;51.494;-2.626;2023-06-14T00:11:24;18.55;59.08
70154;DHT22;57519;51.494;-2.626;2023-06-14T00:13:52;18.53;58.91
70154;DHT22;57519;51.494;-2.626;2023-06-14T00:16:17;18.48;59.08
70154;DHT22;57519;51.494;-2.626;2023-06-14T00:18:44;18.53;58.94
70154;DHT22;57519;51.494;-2.626;2023-06-14T00:21:11;18.47;59.12
70154;DHT22;57519;51.494;-2.626;2023-06-14T00:23:37;18.40;59.55
70154;DHT22;57519;51.494;-2.626;2023-06-14T00:26:03;18.27;59.87
70154;DHT22;57519;51.494;-2.626;2023-06-14T00:28:29;18.18;60.31
70154;DHT22;57519;51.494;-2.626;2023-06-14T00:30:54;18.17;60.44
70154;DHT22;57519;51.494;-2.626;2023-06-14T00:33:22;18.11;60.43
70154;DHT22;57519;51.494;-2.626;2023-06-14T00:35:47;18.10;60.72
70154;DHT22;57519;51.494;-2.626;2023-06-14T00:38:13;18.03;60.66
70154;DHT22;57519;51.494;-2.626;2023-06-14T00:40:38;17.96;61.12
70154;DHT22;57519;51.494;-2.626;2023-06-14T00:43:06;17.90;61.50
70154;DHT22;57519;51.494;-2.626;2023-06-14T00:45:31;17.82;61.24
70154;DHT22;57519;51.494;-2.626;2023-06-14T00:48:01;17.65;62.96
70154;DHT22;57519;51.494;-2.626;2023-06-14T00:50:28;17.53;63.85
70154;DHT22;57519;51.494;-2.626;2023-06-14T00:52:55;17.48;62.04
70154;DHT22;57519;51.494;-2.626;2023-06-14T00:55:21;17.42;63.14
70154;DHT22;57519;51.494;-2.626;2023-06-14T00:57:46;17.40;63.68
70154;DHT22;57519;51.494;-2.626;2023-06-14T01:00:12;17.42;62.36
70154;DHT22;57519;51.494;-2.626;2023-06-14T01:02:38;17.40;63.17
70154;DHT22;57519;51.494;-2.626;2023-06-14T01:05:06;17.35;62.88
70154;DHT22;57519;51.494;-2.626;2023-06-14T01:10:52;17.15;63.49
70154;DHT22;57519;51.494;-2.626;2023-06-14T01:13:26;17.07;65.17
70154;DHT22;57519;51.494;-2.626;2023-06-14T01:15:54;16.85;66.64
70154;DHT22;57519;51.494;-2.626;2023-06-14T01:18:21;16.85;66.39
70154;DHT22;57519;51.494;-2.626;2023-06-14T01:20:49;16.64;66.73
70154;DHT22;57519;51.494;-2.626;2023-06-14T01:23:22;16.56;67.31
70154;DHT22;57519;51.494;-2.626;2023-06-14T01:25:48;16.46;68.00
70154;DHT22;57519;51.494;-2.626;2023-06-14T01:28:18;16.32;68.52
70154;DHT22;57519;51.494;-2.626;2023-06-14T01:30:47;16.32;67.74
70154;DHT22;57519;51.494;-2.626;2023-06-14T01:33:19;16.18;68.56
70154;DHT22;57519;51.494;-2.626;2023-06-14T01:35:48;15.90;69.20
70154;DHT22;57519;51.494;-2.626;2023-06-14T01:38:15;15.83;70.10
70154;DHT22;57519;51.494;-2.626;2023-06-14T01:40:43;15.49;71.56
70154;DHT22;57519;51.494;-2.626;2023-06-14T01:43:11;15.42;71.97
70154;DHT22;57519;51.494;-2.626;2023-06-14T01:45:40;15.22;72.42
70154;DHT22;57519;51.494;-2.626;2023-06-14T01:48:06;15.10;72.95
70154;DHT22;57519;51.494;-2.626;2023-06-14T01:50:32;15.08;72.91
70154;DHT22;57519;51.494;-2.626;2023-06-14T01:53:00;14.87;72.99
70154;DHT22;57519;51.494;-2.626;2023-06-14T01:55:26;14.82;72.65
70154;DHT22;57519;51.494;-2.626;2023-06-14T01:57:52;14.71;73.21
70154;DHT22;57519;51.494;-2.626;2023-06-14T02:00:18;14.68;73.32
70154;DHT22;57519;51.494;-2.626;2023-06-14T02:02:44;14.57;73.20
70154;DHT22;57519;51.494;-2.626;2023-06-14T02:05:11;14.61;72.81
70154;DHT22;57519;51.494;-2.626;2023-06-14T02:07:37;14.45;73.12
70154;DHT22;57519;51.494;-2.626;2023-06-14T02:10:03;14.34;73.09
70154;DHT22;57519;51.494;-2.626;2023-06-14T02:12:29;14.30;73.12
70154;DHT22;57519;51.494;-2.626;2023-06-14T02:14:55;14.22;73.43
70154;DHT22;57519;51.494;-2.626;2023-06-14T02:17:21;14.16;73.53
70154;DHT22;57519;51.494;-2.626;2023-06-14T02:19:47;14.03;74.36
70154;DHT22;57519;51.494;-2.626;2023-06-14T02:22:12;14.03;74.38
70154;DHT22;57519;51.494;-2.626;2023-06-14T02:24:40;14.02;74.66
70154;DHT22;57519;51.494;-2.626;2023-06-14T02:27:05;13.93;74.60
70154;DHT22;57519;51.494;-2.626;2023-06-14T02:29:32;13.87;74.70
70154;DHT22;57519;51.494;-2.626;2023-06-14T02:31:57;13.98;74.20
70154;DHT22;57519;51.494;-2.626;2023-06-14T02:34:22;13.98;73.94
70154;DHT22;57519;51.494;-2.626;2023-06-14T02:36:48;14.03;73.15
70154;DHT22;57519;51.494;-2.626;2023-06-14T02:39:16;14.12;73.01
70154;DHT22;57519;51.494;-2.626;2023-06-14T02:41:42;14.03;70.46
70154;DHT22;57519;51.494;-2.626;2023-06-14T02:44:09;14.01;73.02
70154;DHT22;57519;51.494;-2.626;2023-06-14T02:46:36;13.98;72.61
70154;DHT22;57519;51.494;-2.626;2023-06-14T02:49:02;13.98;73.34
70154;DHT22;57519;51.494;-2.626;2023-06-14T02:51:27;13.99;73.31
70154;DHT22;57519;51.494;-2.626;2023-06-14T02:53:53;14.01;73.59
70154;DHT22;57519;51.494;-2.626;2023-06-14T02:56:19;14.12;73.78
70154;DHT22;57519;51.494;-2.626;2023-06-14T02:58:44;14.14;73.81
70154;DHT22;57519;51.494;-2.626;2023-06-14T03:01:13;14.26;74.05
70154;DHT22;57519;51.494;-2.626;2023-06-14T03:03:39;14.44;74.70
70154;DHT22;57519;51.494;-2.626;2023-06-14T03:06:04;14.41;74.87
70154;DHT22;57519;51.494;-2.626;2023-06-14T03:08:33;14.41;74.50
70154;DHT22;57519;51.494;-2.626;2023-06-14T03:11:04;14.33;75.19
70154;DHT22;57519;51.494;-2.626;2023-06-14T03:13:30;14.34;75.07
70154;DHT22;57519;51.494;-2.626;2023-06-14T03:15:57;14.43;75.16
70154;DHT22;57519;51.494;-2.626;2023-06-14T03:18:23;14.40;75.17
70154;DHT22;57519;51.494;-2.626;2023-06-14T03:20:49;14.48;75.05
70154;DHT22;57519;51.494;-2.626;2023-06-14T03:23:16;14.51;74.70
70154;DHT22;57519;51.494;-2.626;2023-06-14T03:25:41;14.44;75.21
70154;DHT22;57519;51.494;-2.626;2023-06-14T03:28:09;14.38;75.38
70154;DHT22;57519;51.494;-2.626;2023-06-14T03:30:35;14.30;75.55
70154;DHT22;57519;51.494;-2.626;2023-06-14T03:33:01;14.20;76.32
70154;DHT22;57519;51.494;-2.626;2023-06-14T03:35:27;14.01;76.75
70154;DHT22;57519;51.494;-2.626;2023-06-14T03:37:53;13.95;76.84
70154;DHT22;57519;51.494;-2.626;2023-06-14T03:40:19;13.93;77.04
70154;DHT22;57519;51.494;-2.626;2023-06-14T03:42:45;13.76;76.75
70154;DHT22;57519;51.494;-2.626;2023-06-14T03:45:10;13.90;74.48
70154;DHT22;57519;51.494;-2.626;2023-06-14T03:47:36;13.85;72.73
70154;DHT22;57519;51.494;-2.626;2023-06-14T03:50:02;13.78;73.51
70154;DHT22;57519;51.494;-2.626;2023-06-14T03:52:29;13.68;75.32
70154;DHT22;57519;51.494;-2.626;2023-06-14T03:54:54;13.58;75.19
70154;DHT22;57519;51.494;-2.626;2023-06-14T03:57:20;13.58;75.11
70154;DHT22;57519;51.494;-2.626;2023-06-14T03:59:47;13.43;74.60
70154;DHT22;57519;51.494;-2.626;2023-06-14T04:02:12;13.57;72.67
70154;DHT22;57519;51.494;-2.626;2023-06-14T04:04:41;13.55;70.08
70154;DHT22;57519;51.494;-2.626;2023-06-14T04:07:10;13.58;70.20
70154;DHT22;57519;51.494;-2.626;2023-06-14T04:09:37;13.62;69.76
70154;DHT22;57519;51.494;-2.626;2023-06-14T04:12:02;13.68;69.45
70154;DHT22;57519;51.494;-2.626;2023-06-14T04:14:28;13.76;67.46
70154;DHT22;57519;51.494;-2.626;2023-06-14T04:16:55;13.72;69.39
70154;DHT22;57519;51.494;-2.626;2023-06-14T04:19:21;13.65;69.34
70154;DHT22;57519;51.494;-2.626;2023-06-14T04:21:46;13.53;67.16
70154;DHT22;57519;51.494;-2.626;2023-06-14T04:24:12;13.34;67.91
70154;DHT22;57519;51.494;-2.626;2023-06-14T04:26:43;13.20;67.95
70154;DHT22;57519;51.494;-2.626;2023-06-14T04:29:14;13.17;66.66
70154;DHT22;57519;51.494;-2.626;2023-06-14T04:31:42;13.14;66.66
70154;DHT22;57519;51.494;-2.626;2023-06-14T04:34:07;13.06;66.22
70154;DHT22;57519;51.494;-2.626;2023-06-14T04:36:34;13.07;66.57
70154;DHT22;57519;51.494;-2.626;2023-06-14T04:39:03;13.00;66.51
70154;DHT22;57519;51.494;-2.626;2023-06-14T04:41:30;13.06;66.80
70154;DHT22;57519;51.494;-2.626;2023-06-14T04:44:00;13.10;66.95
70154;DHT22;57519;51.494;-2.626;2023-06-14T04:46:29;13.11;66.62
70154;DHT22;57519;51.494;-2.626;2023-06-14T04:48:55;13.09;66.54
70154;DHT22;57519;51.494;-2.626;2023-06-14T04:51:21;12.97;66.76
70154;DHT22;57519;51.494;-2.626;2023-06-14T04:53:56;12.96;66.56
70154;DHT22;57519;51.494;-2.626;2023-06-14T04:56:23;13.04;66.69
70154;DHT22;57519;51.494;-2.626;2023-06-14T04:58:53;13.03;66.55
70154;DHT22;57519;51.494;-2.626;2023-06-14T05:01:20;13.13;66.87
70154;DHT22;57519;51.494;-2.626;2023-06-14T05:03:46;13.11;66.99
70154;DHT22;57519;51.494;-2.626;2023-06-14T05:06:15;13.23;67.49
70154;DHT22;57519;51.494;-2.626;2023-06-14T05:08:41;13.26;66.67
70154;DHT22;57519;51.494;-2.626;2023-06-14T05:11:06;13.34;66.54
70154;DHT22;57519;51.494;-2.626;2023-06-14T05:13:32;13.28;66.41
70154;DHT22;57519;51.494;-2.626;2023-06-14T05:15:58;13.27;67.45
70154;DHT22;57519;51.494;-2.626;2023-06-14T05:18:24;13.23;67.41
70154;DHT22;57519;51.494;-2.626;2023-06-14T05:20:50;13.24;67.57
70154;DHT22;57519;51.494;-2.626;2023-06-14T05:23:16;13.21;67.29
70154;DHT22;57519;51.494;-2.626;2023-06-14T05:25:43;13.20;67.39
70154;DHT22;57519;51.494;-2.626;2023-06-14T05:28:11;13.21;67.68
70154;DHT22;57519;51.494;-2.626;2023-06-14T05:30:40;13.33;67.55
70154;DHT22;57519;51.494;-2.626;2023-06-14T05:33:09;13.20;67.89
70154;DHT22;57519;51.494;-2.626;2023-06-14T05:35:34;13.14;68.02
70154;DHT22;57519;51.494;-2.626;2023-06-14T05:37:59;13.13;68.19
70154;DHT22;57519;51.494;-2.626;2023-06-14T05:40:25;13.09;68.66
70154;DHT22;57519;51.494;-2.626;2023-06-14T05:42:52;13.18;68.29
70154;DHT22;57519;51.494;-2.626;2023-06-14T05:45:17;13.27;68.81
70154;DHT22;57519;51.494;-2.626;2023-06-14T05:47:43;13.43;68.35
70154;DHT22;57519;51.494;-2.626;2023-06-14T05:50:09;13.36;68.45
70154;DHT22;57519;51.494;-2.626;2023-06-14T05:52:35;13.40;68.51
70154;DHT22;57519;51.494;-2.626;2023-06-14T05:55:24;13.47;68.74
70154;DHT22;57519;51.494;-2.626;2023-06-14T05:57:50;13.53;69.15
70154;DHT22;57519;51.494;-2.626;2023-06-14T06:00:16;13.53;68.82
70154;DHT22;57519;51.494;-2.626;2023-06-14T06:02:42;13.68;69.17
70154;DHT22;57519;51.494;-2.626;2023-06-14T06:05:09;13.68;68.44
70154;DHT22;57519;51.494;-2.626;2023-06-14T06:07:35;13.78;68.69
70154;DHT22;57519;51.494;-2.626;2023-06-14T06:10:04;13.79;68.86
70154;DHT22;57519;51.494;-2.626;2023-06-14T06:12:30;13.78;68.85
70154;DHT22;57519;51.494;-2.626;2023-06-14T06:14:56;13.90;68.80
70154;DHT22;57519;51.494;-2.626;2023-06-14T06:17:24;13.99;68.56
70154;DHT22;57519;51.494;-2.626;2023-06-14T06:19:54;14.08;68.37
70154;DHT22;57519;51.494;-2.626;2023-06-14T06:22:19;14.09;68.47
70154;DHT22;57519;51.494;-2.626;2023-06-14T06:24:45;14.20;68.45
70154;DHT22;57519;51.494;-2.626;2023-06-14T06:27:11;14.24;68.75
70154;DHT22;57519;51.494;-2.626;2023-06-14T06:29:37;14.37;68.26
70154;DHT22;57519;51.494;-2.626;2023-06-14T06:32:03;14.36;68.23
70154;DHT22;57519;51.494;-2.626;2023-06-14T06:34:29;14.24;68.46
70154;DHT22;57519;51.494;-2.626;2023-06-14T06:36:54;14.43;69.25
70154;DHT22;57519;51.494;-2.626;2023-06-14T06:39:23;14.32;70.21
70154;DHT22;57519;51.494;-2.626;2023-06-14T06:41:48;14.30;70.54
70154;DHT22;57519;51.494;-2.626;2023-06-14T06:44:15;14.30;70.99
70154;DHT22;57519;51.494;-2.626;2023-06-14T06:46:41;14.44;71.57
70154;DHT22;57519;51.494;-2.626;2023-06-14T06:49:08;14.44;71.54
70154;DHT22;57519;51.494;-2.626;2023-06-14T06:51:35;14.57;71.28
70154;DHT22;57519;51.494;-2.626;2023-06-14T06:54:01;14.57;70.99
70154;DHT22;57519;51.494;-2.626;2023-06-14T06:56:27;14.64;71.00
70154;DHT22;57519;51.494;-2.626;2023-06-14T06:58:53;14.72;71.18
70154;DHT22;57519;51.494;-2.626;2023-06-14T07:01:19;14.70;70.49
70154;DHT22;57519;51.494;-2.626;2023-06-14T07:03:45;14.82;70.94
70154;DHT22;57519;51.494;-2.626;2023-06-14T07:06:11;14.87;70.88
70154;DHT22;57519;51.494;-2.626;2023-06-14T07:08:36;15.05;70.60
70154;DHT22;57519;51.494;-2.626;2023-06-14T07:11:04;15.32;69.55
70154;DHT22;57519;51.494;-2.626;2023-06-14T07:13:30;15.22;69.90
70154;DHT22;57519;51.494;-2.626;2023-06-14T07:15:57;15.32;70.73
70154;DHT22;57519;51.494;-2.626;2023-06-14T07:18:23;15.26;70.16
70154;DHT22;57519;51.494;-2.626;2023-06-14T07:20:50;15.35;70.42
70154;DHT22;57519;51.494;-2.626;2023-06-14T07:23:16;15.36;69.80
70154;DHT22;57519;51.494;-2.626;2023-06-14T07:25:41;15.26;70.75
70154;DHT22;57519;51.494;-2.626;2023-06-14T07:28:06;15.44;70.24
70154;DHT22;57519;51.494;-2.626;2023-06-14T07:30:32;15.53;69.21
70154;DHT22;57519;51.494;-2.626;2023-06-14T07:32:58;15.64;69.17
70154;DHT22;57519;51.494;-2.626;2023-06-14T07:35:23;15.71;69.12
70154;DHT22;57519;51.494;-2.626;2023-06-14T07:37:49;15.70;69.10
70154;DHT22;57519;51.494;-2.626;2023-06-14T07:40:15;15.71;68.54
70154;DHT22;57519;51.494;-2.626;2023-06-14T07:42:41;15.70;69.11
70154;DHT22;57519;51.494;-2.626;2023-06-14T07:45:06;15.83;69.12
70154;DHT22;57519;51.494;-2.626;2023-06-14T07:47:32;16.12;69.00
70154;DHT22;57519;51.494;-2.626;2023-06-14T07:49:58;16.12;68.43
70154;DHT22;57519;51.494;-2.626;2023-06-14T07:52:24;16.42;68.21
70154;DHT22;57519;51.494;-2.626;2023-06-14T07:54:50;16.39;67.63
70154;DHT22;57519;51.494;-2.626;2023-06-14T07:57:18;16.43;68.24
70154;DHT22;57519;51.494;-2.626;2023-06-14T07:59:45;16.33;68.26
70154;DHT22;57519;51.494;-2.626;2023-06-14T08:02:11;16.57;67.61
70154;DHT22;57519;51.494;-2.626;2023-06-14T08:04:36;16.53;67.18
70154;DHT22;57519;51.494;-2.626;2023-06-14T08:07:02;16.28;67.28
70154;DHT22;57519;51.494;-2.626;2023-06-14T08:09:27;16.49;66.47
70154;DHT22;57519;51.494;-2.626;2023-06-14T08:11:54;16.50;67.13
70154;DHT22;57519;51.494;-2.626;2023-06-14T08:14:20;16.34;66.37
70154;DHT22;57519;51.494;-2.626;2023-06-14T08:16:45;16.33;67.39
70154;DHT22;57519;51.494;-2.626;2023-06-14T08:19:11;16.41;66.65
70154;DHT22;57519;51.494;-2.626;2023-06-14T08:21:36;16.67;66.18
70154;DHT22;57519;51.494;-2.626;2023-06-14T08:24:02;16.74;65.85
70154;DHT22;57519;51.494;-2.626;2023-06-14T08:26:27;17.17;66.30
70154;DHT22;57519;51.494;-2.626;2023-06-14T08:28:57;17.21;64.74
70154;DHT22;57519;51.494;-2.626;2023-06-14T08:31:23;17.18;65.28
70154;DHT22;57519;51.494;-2.626;2023-06-14T08:33:49;17.38;65.61
70154;DHT22;57519;51.494;-2.626;2023-06-14T08:36:15;17.25;64.62
70154;DHT22;57519;51.494;-2.626;2023-06-14T08:38:41;17.42;64.57
70154;DHT22;57519;51.494;-2.626;2023-06-14T08:41:07;17.27;65.42
70154;DHT22;57519;51.494;-2.626;2023-06-14T08:43:33;17.18;65.55
70154;DHT22;57519;51.494;-2.626;2023-06-14T08:46:02;17.36;65.35
70154;DHT22;57519;51.494;-2.626;2023-06-14T08:48:29;17.50;65.69
70154;DHT22;57519;51.494;-2.626;2023-06-14T08:50:59;17.67;63.63
70154;DHT22;57519;51.494;-2.626;2023-06-14T08:53:32;17.70;62.78
70154;DHT22;57519;51.494;-2.626;2023-06-14T08:56:02;18.03;62.53
70154;DHT22;57519;51.494;-2.626;2023-06-14T08:58:30;17.96;62.63
70154;DHT22;57519;51.494;-2.626;2023-06-14T09:00:59;17.91;63.48
70154;DHT22;57519;51.494;-2.626;2023-06-14T09:03:24;18.04;62.85
70154;DHT22;57519;51.494;-2.626;2023-06-14T09:05:56;18.08;61.55
70154;DHT22;57519;51.494;-2.626;2023-06-14T09:08:21;18.76;61.13
70154;DHT22;57519;51.494;-2.626;2023-06-14T09:10:48;18.62;60.04
70154;DHT22;57519;51.494;-2.626;2023-06-14T09:13:16;18.52;61.25
70154;DHT22;57519;51.494;-2.626;2023-06-14T09:15:42;18.76;61.34
70154;DHT22;57519;51.494;-2.626;2023-06-14T09:18:07;18.96;59.50
70154;DHT22;57519;51.494;-2.626;2023-06-14T09:20:36;18.79;59.81
70154;DHT22;57519;51.494;-2.626;2023-06-14T09:23:03;18.61;60.65
70154;DHT22;57519;51.494;-2.626;2023-06-14T09:25:30;18.63;60.01
70154;DHT22;57519;51.494;-2.626;2023-06-14T09:27:57;18.95;60.21
70154;DHT22;57519;51.494;-2.626;2023-06-14T09:30:22;19.07;59.05
70154;DHT22;57519;51.494;-2.626;2023-06-14T09:32:48;19.31;59.91
70154;DHT22;57519;51.494;-2.626;2023-06-14T09:35:17;19.65;60.82
70154;DHT22;57519;51.494;-2.626;2023-06-14T09:37:43;19.65;58.86
70154;DHT22;57519;51.494;-2.626;2023-06-14T09:40:10;19.74;59.13
70154;DHT22;57519;51.494;-2.626;2023-06-14T09:42:37;19.82;58.14
70154;DHT22;57519;51.494;-2.626;2023-06-14T09:45:03;19.65;58.34
70154;DHT22;57519;51.494;-2.626;2023-06-14T09:47:29;19.44;58.25
70154;DHT22;57519;51.494;-2.626;2023-06-14T09:49:54;19.85;58.49
70154;DHT22;57519;51.494;-2.626;2023-06-14T09:52:21;20.30;59.42
70154;DHT22;57519;51.494;-2.626;2023-06-14T09:54:47;20.44;56.32
70154;DHT22;57519;51.494;-2.626;2023-06-14T09:57:16;20.51;54.99
70154;DHT22;57519;51.494;-2.626;2023-06-14T09:59:43;20.80;56.25
70154;DHT22;57519;51.494;-2.626;2023-06-14T10:02:29;20.47;55.10
70154;DHT22;57519;51.494;-2.626;2023-06-14T10:05:06;20.52;56.19
70154;DHT22;57519;51.494;-2.626;2023-06-14T10:07:40;20.26;55.24
70154;DHT22;57519;51.494;-2.626;2023-06-14T10:10:07;20.72;57.27
70154;DHT22;57519;51.494;-2.626;2023-06-14T10:12:33;20.57;54.94
70154;DHT22;57519;51.494;-2.626;2023-06-14T10:14:59;20.63;55.86
70154;DHT22;57519;51.494;-2.626;2023-06-14T10:17:38;20.72;53.64
70154;DHT22;57519;51.494;-2.626;2023-06-14T10:20:42;21.08;55.29
70154;DHT22;57519;51.494;-2.626;2023-06-14T10:23:18;21.27;54.07
70154;DHT22;57519;51.494;-2.626;2023-06-14T10:25:49;21.39;54.42
70154;DHT22;57519;51.494;-2.626;2023-06-14T10:28:21;21.58;53.87
70154;DHT22;57519;51.494;-2.626;2023-06-14T10:31:08;21.30;53.57
70154;DHT22;57519;51.494;-2.626;2023-06-14T10:36:24;21.78;54.75
70154;DHT22;57519;51.494;-2.626;2023-06-14T10:41:26;22.35;53.35
70154;DHT22;57519;51.494;-2.626;2023-06-14T10:46:39;22.00;49.22
70154;DHT22;57519;51.494;-2.626;2023-06-14T10:49:09;22.22;50.30
70154;DHT22;57519;51.494;-2.626;2023-06-14T10:51:41;22.18;49.69
70154;DHT22;57519;51.494;-2.626;2023-06-14T10:54:13;22.02;50.86
70154;DHT22;57519;51.494;-2.626;2023-06-14T10:56:54;22.29;52.20
70154;DHT22;57519;51.494;-2.626;2023-06-14T10:59:20;22.15;51.88
70154;DHT22;57519;51.494;-2.626;2023-06-14T11:01:58;22.98;48.07
70154;DHT22;57519;51.494;-2.626;2023-06-14T11:04:34;22.74;47.06
70154;DHT22;57519;51.494;-2.626;2023-06-14T11:12:52;22.67;45.91
70154;DHT22;57519;51.494;-2.626;2023-06-14T11:15:20;23.07;44.71
70154;DHT22;57519;51.494;-2.626;2023-06-14T11:17:52;23.12;47.77
70154;DHT22;57519;51.494;-2.626;2023-06-14T11:20:25;22.55;50.98
70154;DHT22;57519;51.494;-2.626;2023-06-14T11:22:52;22.71;51.33
70154;DHT22;57519;51.494;-2.626;2023-06-14T11:25:17;23.06;48.39
70154;DHT22;57519;51.494;-2.626;2023-06-14T11:27:44;22.94;49.90
70154;DHT22;57519;51.494;-2.626;2023-06-14T11:30:10;22.94;48.49
70154;DHT22;57519;51.494;-2.626;2023-06-14T11:32:36;23.63;50.15
70154;DHT22;57519;51.494;-2.626;2023-06-14T11:35:03;23.52;48.49
70154;DHT22;57519;51.494;-2.626;2023-06-14T11:37:33;23.32;49.29
70154;DHT22;57519;51.494;-2.626;2023-06-14T11:40:02;23.27;49.28
70154;DHT22;57519;51.494;-2.626;2023-06-14T11:42:33;23.03;50.79
70154;DHT22;57519;51.494;-2.626;2023-06-14T11:44:59;22.77;50.69
70154;DHT22;57519;51.494;-2.626;2023-06-14T11:47:30;23.24;47.99
70154;DHT22;57519;51.494;-2.626;2023-06-14T11:49:58;23.17;46.95
70154;DHT22;57519;51.494;-2.626;2023-06-14T11:52:24;23.14;48.43
70154;DHT22;57519;51.494;-2.626;2023-06-14T11:54:49;23.39;48.06
70154;DHT22;57519;51.494;-2.626;2023-06-14T11:57:17;24.02;47.03
70154;DHT22;57519;51.494;-2.626;2023-06-14T11:59:49;23.80;48.64
70154;DHT22;57519;51.494;-2.626;2023-06-14T12:02:15;24.03;49.10
70154;DHT22;57519;51.494;-2.626;2023-06-14T12:04:42;23.52;48.96
70154;DHT22;57519;51.494;-2.626;2023-06-14T12:07:15;24.00;50.59
70154;DHT22;57519;51.494;-2.626;2023-06-14T12:12:21;23.73;50.84
70154;DHT22;57519;51.494;-2.626;2023-06-14T12:14:47;23.92;49.72
70154;DHT22;57519;51.494;-2.626;2023-06-14T12:17:16;24.17;48.49
70154;DHT22;57519;51.494;-2.626;2023-06-14T12:19:43;24.16;49.02
70154;DHT22;57519;51.494;-2.626;2023-06-14T12:22:09;24.11;48.17
70154;DHT22;57519;51.494;-2.626;2023-06-14T12:24:35;24.13;48.92
70154;DHT22;57519;51.494;-2.626;2023-06-14T12:27:01;24.18;48.53
70154;DHT22;57519;51.494;-2.626;2023-06-14T12:29:30;24.25;48.87
70154;DHT22;57519;51.494;-2.626;2023-06-14T12:31:56;24.27;48.11
70154;DHT22;57519;51.494;-2.626;2023-06-14T12:34:26;24.58;47.86
70154;DHT22;57519;51.494;-2.626;2023-06-14T12:36:53;24.57;46.80
70154;DHT22;57519;51.494;-2.626;2023-06-14T12:39:19;24.75;45.79
70154;DHT22;57519;51.494;-2.626;2023-06-14T12:41:44;24.58;45.65
70154;DHT22;57519;51.494;-2.626;2023-06-14T12:44:11;24.90;46.44
70154;DHT22;57519;51.494;-2.626;2023-06-14T12:46:37;24.88;45.88
70154;DHT22;57519;51.494;-2.626;2023-06-14T12:49:05;25.31;46.05
70154;DHT22;57519;51.494;-2.626;2023-06-14T12:51:30;25.57;45.65
70154;DHT22;57519;51.494;-2.626;2023-06-14T12:53:56;25.48;45.39
70154;DHT22;57519;51.494;-2.626;2023-06-14T12:56:21;25.30;44.71
70154;DHT22;57519;51.494;-2.626;2023-06-14T12:58:47;24.95;44.18
70154;DHT22;57519;51.494;-2.626;2023-06-14T13:01:12;24.95;45.86
70154;DHT22;57519;51.494;-2.626;2023-06-14T13:03:38;24.79;45.00
70154;DHT22;57519;51.494;-2.626;2023-06-14T13:06:03;24.55;46.52
70154;DHT22;57519;51.494;-2.626;2023-06-14T13:08:29;24.78;44.99
70154;DHT22;57519;51.494;-2.626;2023-06-14T13:10:55;25.19;44.50
70154;DHT22;57519;51.494;-2.626;2023-06-14T13:13:21;25.28;46.08
70154;DHT22;57519;51.494;-2.626;2023-06-14T13:15:46;25.72;44.75
70154;DHT22;57519;51.494;-2.626;2023-06-14T13:18:13;25.78;45.42
70154;DHT22;57519;51.494;-2.626;2023-06-14T13:20:39;25.85;45.17
70154;DHT22;57519;51.494;-2.626;2023-06-14T13:23:05;25.34;44.62
70154;DHT22;57519;51.494;-2.626;2023-06-14T13:25:33;25.45;44.66
70154;DHT22;57519;51.494;-2.626;2023-06-14T13:27:59;25.40;44.93
70154;DHT22;57519;51.494;-2.626;2023-06-14T13:30:24;25.48;45.69
70154;DHT22;57519;51.494;-2.626;2023-06-14T13:32:50;25.63;44.44
70154;DHT22;57519;51.494;-2.626;2023-06-14T13:35:18;25.71;44.03
70154;DHT22;57519;51.494;-2.626;2023-06-14T13:37:43;25.96;44.84
70154;DHT22;57519;51.494;-2.626;2023-06-14T13:40:09;25.95;43.89
70154;DHT22;57519;51.494;-2.626;2023-06-14T13:42:35;26.36;42.39
70154;DHT22;57519;51.494;-2.626;2023-06-14T13:45:02;26.33;44.36
70154;DHT22;57519;51.494;-2.626;2023-06-14T13:47:27;26.11;43.67
70154;DHT22;57519;51.494;-2.626;2023-06-14T13:49:56;26.56;44.08
70154;DHT22;57519;51.494;-2.626;2023-06-14T13:52:22;26.32;41.92
70154;DHT22;57519;51.494;-2.626;2023-06-14T13:54:47;26.37;43.54
70154;DHT22;57519;51.494;-2.626;2023-06-14T13:57:13;26.49;42.49
70154;DHT22;57519;51.494;-2.626;2023-06-14T13:59:39;26.39;43.41
70154;DHT22;57519;51.494;-2.626;2023-06-14T14:02:05;26.47;43.34
70154;DHT22;57519;51.494;-2.626;2023-06-14T14:04:34;26.90;42.55
70154;DHT22;57519;51.494;-2.626;2023-06-14T14:07:03;26.78;42.69
70154;DHT22;57519;51.494;-2.626;2023-06-14T14:09:29;26.64;43.95
70154;DHT22;57519;51.494;-2.626;2023-06-14T14:11:58;27.09;42.75
70154;DHT22;57519;51.494;-2.626;2023-06-14T14:14:24;27.28;42.13
70154;DHT22;57519;51.494;-2.626;2023-06-14T14:16:50;27.50;43.71
70154;DHT22;57519;51.494;-2.626;2023-06-14T14:19:22;27.08;42.63
70154;DHT22;57519;51.494;-2.626;2023-06-14T14:21:48;27.02;43.11
70154;DHT22;57519;51.494;-2.626;2023-06-14T14:24:13;26.92;42.91
70154;DHT22;57519;51.494;-2.626;2023-06-14T14:26:39;26.65;43.71
70154;DHT22;57519;51.494;-2.626;2023-06-14T14:29:05;26.80;43.86
70154;DHT22;57519;51.494;-2.626;2023-06-14T14:31:31;26.70;43.35
70154;DHT22;57519;51.494;-2.626;2023-06-14T14:33:56;26.60;43.43
70154;DHT22;57519;51.494;-2.626;2023-06-14T14:36:22;26.60;44.25
70154;DHT22;57519;51.494;-2.626;2023-06-14T14:38:49;26.77;42.39
70154;DHT22;57519;51.494;-2.626;2023-06-14T14:41:17;26.80;44.67
70154;DHT22;57519;51.494;-2.626;2023-06-14T14:43:44;26.80;43.64
70154;DHT22;57519;51.494;-2.626;2023-06-14T14:46:09;27.06;42.42
70154;DHT22;57519;51.494;-2.626;2023-06-14T14:48:35;26.76;43.64
70154;DHT22;57519;51.494;-2.626;2023-06-14T14:51:01;27.16;43.17
70154;DHT22;57519;51.494;-2.626;2023-06-14T14:53:27;27.39;43.54
70154;DHT22;57519;51.494;-2.626;2023-06-14T14:58:56;27.32;41.86
70154;DHT22;57519;51.494;-2.626;2023-06-14T15:05:02;26.99;43.37
70154;DHT22;57519;51.494;-2.626;2023-06-14T15:14:10;26.80;44.19
70154;DHT22;57519;51.494;-2.626;2023-06-14T15:16:35;27.15;44.12
70154;DHT22;57519;51.494;-2.626;2023-06-14T15:22:25;27.56;42.35
70154;DHT22;57519;51.494;-2.626;2023-06-14T15:28:54;27.84;42.71
70154;DHT22;57519;51.494;-2.626;2023-06-14T15:31:19;27.66;42.83
70154;DHT22;57519;51.494;-2.626;2023-06-14T15:33:45;28.18;42.46
70154;DHT22;57519;51.494;-2.626;2023-06-14T15:36:10;28.53;43.12
70154;DHT22;57519;51.494;-2.626;2023-06-14T15:42:22;28.17;41.19
70154;DHT22;57519;51.494;-2.626;2023-06-14T15:44:48;28.12;42.26
70154;DHT22;57519;51.494;-2.626;2023-06-14T15:50:35;27.87;43.82
70154;DHT22;57519;51.494;-2.626;2023-06-14T15:53:02;27.74;43.19
70154;DHT22;57519;51.494;-2.626;2023-06-14T15:55:27;28.00;43.05
70154;DHT22;57519;51.494;-2.626;2023-06-14T15:57:53;28.17;41.48
70154;DHT22;57519;51.494;-2.626;2023-06-14T16:03:40;28.47;40.58
70154;DHT22;57519;51.494;-2.626;2023-06-14T16:09:46;27.69;42.17